x

Fred Howard Park, Fl (fhpf1) Weather Station

10:54am - Sat 27th May 2017 All times are EDT. -4 hours from GMT.

  • Wind
    8mph, 10mph gusts
  • Air Temp 77°f
  • Sea Pressure 1020.1mb
  • Fred Howard Park, Fl
  • Fred Howard Park, Fl

More Historic Weather Station data

Upgrade to MSW Pro to gain access to the past 30 days of data for over 8000 Wavebouys and Weather Stations around the globe.

Join Pro

Comparision Forecast

View Surf forecast
   
Sat 05/27 10:54am 8 10 mph 1020.1mb 77f
10:48am 7 10 mph 1020mb 77f
9:54am 7 8 mph 1020.1mb 76f
9:48am 6 7 mph 1020.2mb 76f
8:54am 3 3 mph 1019.8mb 76f
8:48am 3 5 mph 1019.6mb 75f
7:54am 3 5 mph 1019mb 72f
7:48am 5 6 mph 1019mb 72f
6:54am 3 5 mph 1018.3mb 71f
5:54am 2 5 mph 1018.1mb 75f
5:48am 5 5 mph 1018.1mb 75f
4:54am 5 7 mph 1018mb 76f
4:48am 5 7 mph 1017.9mb 75f
3:54am 7 7 mph 1018.1mb 76f
3:48am 7 8 mph 1018.1mb 76f
2:54am 8 10 mph 1018.2mb 76f
2:48am 6 8 mph 1018.2mb 76f
1:54am 6 7 mph 1018.6mb 76f
1:48am 5 6 mph 1018.7mb 76f
12:54am 5 6 mph 1019mb 76f
Fri 05/26 11:54pm 5 6 mph 1018.8mb 76f
10:54pm 3 6 mph 1018.8mb 76f
10:48pm 5 7 mph 1018.7mb 76f
9:54pm 5 7 mph 1018.4mb 76f
9:48pm 3 5 mph 1018.5mb 76f
8:54pm 6 8 mph 1018.3mb 77f
8:48pm 5 8 mph 1018.3mb 77f
7:54pm 7 8 mph 1017.9mb 78f
7:48pm 3 6 mph 1017.8mb 78f
6:54pm 6 8 mph 1017.7mb 78f
6:48pm 8 10 mph 1017.7mb 79f
5:54pm 9 11 mph 1017.9mb 79f
5:48pm 8 10 mph 1018mb 79f
4:54pm 6 8 mph 1017.8mb 80f
4:48pm 9 11 mph 1018mb 80f
3:54pm 8 11 mph 1018.3mb 79f
3:48pm 9 10 mph 1018.3mb 80f
2:54pm 7 9 mph 1018.7mb 79f
2:48pm 6 8 mph 1018.8mb 80f
1:54pm 7 8 mph 1018.9mb 78f
1:48pm 7 8 mph 1018.9mb 78f
12:54pm 6 8 mph 1019.2mb 77f
12:48pm 6 8 mph 1019.3mb 77f
11:54am 6 7 mph 1019.5mb 77f
11:48am 7 8 mph 1019.5mb 77f
10:54am 5 7 mph 1019.5mb 77f
10:48am 3 7 mph 1019.4mb 77f
9:54am 6 8 mph 1019.4mb 77f
9:48am 5 6 mph 1019.3mb 76f
8:54am 8 11 mph 1018.6mb 76f
8:48am 8 9 mph 1018.6mb 76f
7:54am 9 11 mph 1018mb 75f
7:48am 8 13 mph 1017.9mb 75f
6:54am 8 10 mph 1017.6mb 75f
6:48am 7 9 mph 1017.5mb 75f
5:54am 8 10 mph 1017mb 74f
5:48am 8 10 mph 1017mb 75f
4:54am 7 10 mph 1016.5mb 74f
4:48am 6 8 mph 1016.4mb 74f
3:54am 7 9 mph 1015.9mb 75f
3:48am 10 14 mph 1015.9mb 75f
2:54am 8 10 mph 1015.9mb 75f
2:48am 8 9 mph 1015.8mb 75f
1:54am 7 8 mph 1016mb 75f
1:48am 6 7 mph 1015.9mb 75f
12:54am 7 10 mph 1015.8mb 75f
12:48am 8 11 mph 1015.8mb 75f
Thu 05/25 11:54pm 8 10 mph 1015.7mb 75f
11:48pm 7 8 mph 1015.7mb 75f
10:54pm 7 8 mph 1015.6mb 75f
10:48pm 6 7 mph 1015.5mb 75f
9:54pm 7 10 mph 1015mb 75f
9:48pm 8 10 mph 1014.9mb 75f
8:54pm 6 8 mph 1014.2mb 75f
8:48pm 5 7 mph 1014.1mb 75f
7:54pm 8 10 mph 1013.5mb 76f
7:48pm 7 10 mph 1013.5mb 76f
6:54pm 9 13 mph 1013.2mb 77f
6:48pm 9 10 mph 1013.2mb 77f
5:54pm 8 10 mph 1013mb 77f
5:48pm 9 14 mph 1012.9mb 77f
4:54pm 8 11 mph 1012.4mb 77f
4:48pm 8 10 mph 1012.6mb 78f
3:54pm 8 11 mph 1012.7mb 77f
3:48pm 10 15 mph 1012.6mb 77f
2:54pm 8 10 mph 1012.8mb 76f
2:48pm 9 11 mph 1013.1mb 76f
1:54pm 9 11 mph 1013.4mb 76f
1:48pm 11 14 mph 1013.3mb 76f
12:54pm 16 20 mph 1012.6mb 76f
12:48pm 18 22 mph 1012.7mb 75f
11:54am 15 20 mph 1013mb 78f
11:48am 15 18 mph 1012.9mb 78f
10:54am 16 18 mph 1012.3mb 77f
10:48am 16 20 mph 1012mb 77f
9:54am 21 26 mph 1011.5mb 76f
9:48am 18 24 mph 1011.5mb 77f
8:54am 20 24 mph 1010.9mb 76f
8:48am 20 23 mph 1010.8mb 76f
7:54am 17 21 mph 1010.5mb 76f
7:48am 17 22 mph 1010.5mb 76f
6:54am 16 22 mph 1009.9mb 76f
6:48am 17 22 mph 1009.8mb 76f
5:54am 17 21 mph 1009.1mb 76f
5:48am 18 23 mph 1008.9mb 76f
4:54am 17 22 mph 1008.6mb 76f
4:48am 18 23 mph 1008.5mb 76f
3:54am 17 24 mph 1008.3mb 76f
3:48am 17 24 mph 1008.3mb 76f
2:54am 17 22 mph 1008mb 77f
2:48am 17 23 mph 1008mb 77f
1:54am 22 26 mph 1008mb 78f
1:48am 21 25 mph 1008mb 78f
12:54am 21 28 mph 1008.3mb 79f
12:48am 23 26 mph 1008.3mb 79f
Wed 05/24 11:54pm 24 29 mph 1007.8mb 79f
11:48pm 25 29 mph 1007.9mb 79f
10:54pm 30 34 mph 1008mb 80f
9:54pm 28 34 mph 1007.2mb 80f
9:48pm 28 34 mph 1007.1mb 80f
8:54pm 29 36 mph 1006.5mb 79f
8:48pm 29 33 mph 1006.5mb 79f
7:54pm 29 34 mph 1006mb 78f
7:48pm 30 36 mph 1005.7mb 78f
6:54pm 30 34 mph 1005.1mb 77f
6:48pm 28 34 mph 1004.9mb 77f
5:54pm 29 33 mph 1005.4mb 77f
5:48pm 26 31 mph 1005.3mb 77f
4:54pm 25 31 mph 1006mb 77f
4:48pm 25 32 mph 1006.3mb 78f